Time;durP1;ratioP1;P1;durP2;ratioP2;P2;SDS_P1;SDS_P2;PMS_P1;PMS_P2;Temp;Humidity;BMP_temperature;BMP_pressure;BME280_temperature;BME280_humidity;BME280_pressure;Samples;Min_cycle;Max_cycle;Signal;HPM_P1;HPM_P2
2022/12/26 00:01:45;;;;;;;2.40;1.50;;;12.80;91.90;;;;;;5053195;28;20426;-72
2022/12/26 00:04:12;;;;;;;2.03;1.63;;;12.80;92.00;;;;;;5064416;28;20511;-71
2022/12/26 00:06:40;;;;;;;2.35;1.50;;;12.80;92.00;;;;;;5064787;28;20407;-71
2022/12/26 00:09:09;;;;;;;2.00;1.70;;;12.80;92.30;;;;;;5065351;28;20418;-72
2022/12/26 00:11:37;;;;;;;2.47;1.67;;;12.70;92.20;;;;;;5053730;28;20419;-71
2022/12/26 00:14:06;;;;;;;2.53;1.70;;;12.70;92.50;;;;;;5053701;28;20439;-71
2022/12/26 00:16:33;;;;;;;2.97;1.70;;;12.70;92.20;;;;;;5064890;28;20408;-71
2022/12/26 00:19:00;;;;;;;2.40;2.10;;;12.80;92.10;;;;;;5063418;28;20422;-71
2022/12/26 00:21:27;;;;;;;1.90;1.60;;;12.70;92.40;;;;;;5057709;28;20411;-72
2022/12/26 00:23:57;;;;;;;3.47;1.70;;;12.70;92.20;;;;;;5061066;28;20456;-72
2022/12/26 00:26:25;;;;;;;3.45;2.00;;;12.70;92.40;;;;;;5058686;28;20424;-72
2022/12/26 00:28:54;;;;;;;2.70;1.80;;;12.70;92.40;;;;;;5063973;28;20431;-72
2022/12/26 00:31:24;;;;;;;2.50;1.63;;;12.70;92.40;;;;;;5052848;28;20496;-72
2022/12/26 00:33:51;;;;;;;2.35;1.60;;;12.70;92.50;;;;;;5065210;28;20416;-72
2022/12/26 00:36:19;;;;;;;1.80;1.60;;;12.70;92.50;;;;;;5064159;28;20426;-72
2022/12/26 00:38:47;;;;;;;2.40;1.90;;;12.70;92.70;;;;;;5064153;28;20436;-71
2022/12/26 00:41:17;;;;;;;2.33;1.85;;;12.70;92.70;;;;;;5065122;28;20920;-72
2022/12/26 00:43:44;;;;;;;2.47;1.80;;;12.70;92.90;;;;;;5059314;28;20531;-72
2022/12/26 00:46:11;;;;;;;2.50;2.10;;;12.70;92.80;;;;;;5053069;28;20431;-72
2022/12/26 00:48:37;;;;;;;2.33;2.00;;;12.60;93.10;;;;;;5063976;28;20411;-72
2022/12/26 00:51:05;;;;;;;3.00;1.90;;;12.60;93.10;;;;;;5064211;28;20833;-74
2022/12/26 00:53:32;;;;;;;3.03;2.00;;;12.50;93.30;;;;;;5064018;28;20420;-72
2022/12/26 00:55:59;;;;;;;1.90;1.60;;;12.50;93.00;;;;;;5064712;28;20416;-72
2022/12/26 00:58:27;;;;;;;3.15;2.13;;;12.50;93.30;;;;;;5067121;28;21011;-70
2022/12/26 01:00:55;;;;;;;2.15;1.83;;;12.50;93.20;;;;;;5055001;28;20430;-72
2022/12/26 01:03:22;;;;;;;2.20;2.00;;;12.50;93.40;;;;;;5067620;28;20480;-71
2022/12/26 01:05:50;;;;;;;2.50;1.88;;;12.40;93.50;;;;;;5067673;28;20778;-71
2022/12/26 01:08:17;;;;;;;2.07;1.90;;;12.40;93.50;;;;;;5067914;28;20420;-71
2022/12/26 01:10:46;;;;;;;2.03;1.80;;;12.40;93.20;;;;;;5067547;28;20427;-71
2022/12/26 01:13:13;;;;;;;4.50;2.30;;;12.40;93.30;;;;;;5055178;28;20428;-70
2022/12/26 01:15:47;;;;;;;2.42;1.95;;;12.40;93.10;;;;;;5056290;28;20782;-71
2022/12/26 01:18:14;;;;;;;2.80;1.83;;;12.40;92.90;;;;;;5067538;28;20435;-71
2022/12/26 01:20:41;;;;;;;2.60;2.20;;;12.40;93.00;;;;;;5060890;28;20912;-71
2022/12/26 01:23:07;;;;;;;2.30;1.98;;;12.40;93.10;;;;;;5067456;28;20407;-72
2022/12/26 01:25:34;;;;;;;2.90;1.58;;;12.40;92.80;;;;;;5058787;28;20492;-72
2022/12/26 01:28:01;;;;;;;2.45;1.70;;;12.50;92.40;;;;;;5066570;28;20466;-71
2022/12/26 01:30:28;;;;;;;2.40;1.90;;;12.50;92.10;;;;;;5061185;28;20415;-71
2022/12/26 01:32:56;;;;;;;2.78;1.80;;;12.60;91.90;;;;;;5067356;28;20408;-71
2022/12/26 01:35:23;;;;;;;2.13;1.60;;;12.70;91.60;;;;;;5067194;28;20410;-72
2022/12/26 01:37:50;;;;;;;2.67;1.90;;;12.70;91.70;;;;;;5067403;28;20419;-71
2022/12/26 01:40:17;;;;;;;2.25;1.70;;;12.70;91.80;;;;;;5067355;28;20430;-72
2022/12/26 01:42:43;;;;;;;3.07;1.93;;;12.70;92.10;;;;;;5065399;28;20501;-72
2022/12/26 01:45:23;;;;;;;2.37;1.80;;;12.60;92.20;;;;;;5064517;28;20451;-72
2022/12/26 01:47:53;;;;;;;2.70;2.00;;;12.60;92.40;;;;;;5067260;28;20682;-71
2022/12/26 01:50:44;;;;;;;3.53;1.80;;;12.50;92.50;;;;;;5068766;28;20419;-72
2022/12/26 01:53:16;;;;;;;3.35;1.70;;;12.50;92.60;;;;;;5062950;28;20420;-72
2022/12/26 01:55:45;;;;;;;2.60;1.70;;;12.50;92.60;;;;;;5085212;28;20418;-72
2022/12/26 01:58:15;;;;;;;3.17;2.00;;;12.40;92.90;;;;;;5073303;28;20433;-72
2022/12/26 02:00:42;;;;;;;3.83;1.97;;;12.30;93.20;;;;;;5054179;28;21083;-72
2022/12/26 02:05:58;;;;;;;2.10;1.60;;;12.30;93.50;;;;;;5068544;28;20534;-71
2022/12/26 02:08:28;;;;;;;2.05;1.70;;;12.40;92.60;;;;;;5067534;28;20427;-71
2022/12/26 02:11:00;;;;;;;2.33;1.48;;;12.40;92.10;;;;;;5053917;28;20777;-72
2022/12/26 02:13:28;;;;;;;1.70;1.60;;;12.50;91.90;;;;;;5056343;28;20493;-71
2022/12/26 02:15:56;;;;;;;2.45;1.83;;;12.50;92.30;;;;;;5057740;28;20908;-71
2022/12/26 02:18:23;;;;;;;1.65;1.55;;;12.50;91.70;;;;;;5067216;28;20427;-71
2022/12/26 02:21:01;;;;;;;1.77;1.50;;;12.50;91.90;;;;;;5060285;28;20837;-72
2022/12/26 02:24:00;;;;;;;2.30;1.60;;;12.50;91.80;;;;;;5066383;28;20431;-71
2022/12/26 02:27:04;;;;;;;3.67;1.67;;;12.50;91.60;;;;;;5060736;28;20420;-71
2022/12/26 02:30:11;;;;;;;2.30;1.50;;;12.50;91.30;;;;;;5061032;28;20449;-72
2022/12/26 02:33:10;;;;;;;2.08;1.40;;;12.50;91.40;;;;;;5066215;28;20886;-71
2022/12/26 02:35:53;;;;;;;1.57;1.30;;;12.60;91.20;;;;;;5024425;28;20431;-71
2022/12/26 02:38:31;;;;;;;3.30;1.90;;;12.50;90.90;;;;;;5066177;28;21063;-71
2022/12/26 02:41:10;;;;;;;1.92;1.40;;;12.60;90.70;;;;;;5064837;28;20443;-71
2022/12/26 02:43:41;;;;;;;2.40;1.40;;;12.60;90.80;;;;;;5060382;28;20518;-72
2022/12/26 02:49:11;;;;;;;1.80;1.40;;;12.60;90.60;;;;;;5066124;28;20414;-72
2022/12/26 03:14:27;;;;;;;1.80;1.50;;;12.00;95.10;;;;;;5057875;28;20395;-71
2022/12/26 03:19:59;;;;;;;1.55;1.30;;;12.00;95.60;;;;;;5056491;28;20939;-72
2022/12/26 03:22:32;;;;;;;3.67;2.00;;;12.00;95.60;;;;;;5057431;28;20427;-71
2022/12/26 03:27:46;;;;;;;2.00;1.60;;;12.00;96.00;;;;;;5054122;28;20547;-71
2022/12/26 03:32:57;;;;;;;3.33;1.73;;;12.00;96.50;;;;;;5065245;28;20457;-71
2022/12/26 03:35:26;;;;;;;3.10;1.70;;;11.90;96.50;;;;;;5065379;28;20538;-70
2022/12/26 03:37:56;;;;;;;3.40;2.00;;;11.90;96.60;;;;;;5062550;28;20419;-71
2022/12/26 04:20:42;;;;;;;2.00;1.80;;;12.10;95.50;;;;;;5066859;28;20410;-70
2022/12/26 04:45:41;;;;;;;2.70;1.90;;;11.90;96.30;;;;;;5063604;28;21184;-71
2022/12/26 04:50:54;;;;;;;2.42;1.90;;;11.80;97.20;;;;;;5060397;28;20411;-71
2022/12/26 04:53:22;;;;;;;2.85;2.22;;;11.70;97.90;;;;;;5063417;28;20491;-71
2022/12/26 04:55:48;;;;;;;2.03;1.83;;;11.60;98.70;;;;;;5061212;28;20431;-72
2022/12/26 04:58:16;;;;;;;4.30;2.00;;;11.50;98.90;;;;;;5055790;28;20873;-71
2022/12/26 05:00:43;;;;;;;4.20;2.22;;;11.50;99.50;;;;;;5063747;28;20427;-71
2022/12/26 05:11:46;;;;;;;2.00;1.80;;;11.30;99.90;;;;;;5029983;28;20507;-70
2022/12/26 05:14:12;;;;;;;1.50;1.33;;;11.30;99.90;;;;;;5057819;28;20739;-71
2022/12/26 05:30:27;;;;;;;3.80;1.90;;;10.90;99.90;;;;;;5062810;28;20437;-72
2022/12/26 05:35:40;;;;;;;3.55;1.80;;;10.70;99.90;;;;;;5063508;28;20402;-73
2022/12/26 05:38:09;;;;;;;1.80;1.58;;;10.60;99.90;;;;;;5063222;28;20523;-73
2022/12/26 05:40:36;;;;;;;2.47;1.60;;;10.40;99.90;;;;;;5053741;28;20521;-74
2022/12/26 05:43:02;;;;;;;2.08;1.70;;;10.40;99.90;;;;;;5054480;28;20421;-74
2022/12/26 05:45:29;;;;;;;3.58;1.80;;;10.30;99.90;;;;;;5066322;28;20901;-74
2022/12/26 05:47:59;;;;;;;1.58;1.48;;;10.30;99.90;;;;;;5066684;28;20474;-74
2022/12/26 05:50:25;;;;;;;2.75;1.30;;;10.20;99.90;;;;;;5066683;28;20412;-74
2022/12/26 05:52:53;;;;;;;2.00;1.08;;;10.20;99.90;;;;;;5066257;28;20835;-75
2022/12/26 05:55:21;;;;;;;1.87;1.40;;;10.10;99.90;;;;;;5063955;28;20501;-75
2022/12/26 05:57:47;;;;;;;1.48;1.20;;;10.10;99.90;;;;;;5054184;28;20417;-75
2022/12/26 06:00:15;;;;;;;1.55;1.20;;;10.10;99.90;;;;;;5053505;28;20415;-75
2022/12/26 06:02:42;;;;;;;1.10;0.90;;;10.10;99.90;;;;;;5066328;28;20483;-75
2022/12/26 06:05:09;;;;;;;1.75;1.10;;;10.10;99.90;;;;;;5066828;28;20411;-76
2022/12/26 06:07:36;;;;;;;1.90;1.20;;;10.10;99.90;;;;;;5066386;28;20435;-75
2022/12/26 06:10:05;;;;;;;1.30;1.10;;;10.10;99.90;;;;;;5062917;28;20469;-75
2022/12/26 06:12:32;;;;;;;3.03;1.40;;;10.10;99.90;;;;;;5055633;28;20514;-74
2022/12/26 06:14:59;;;;;;;1.20;1.00;;;10.10;99.90;;;;;;5055458;28;20422;-75
2022/12/26 06:17:26;;;;;;;1.10;1.00;;;10.10;99.90;;;;;;5066019;28;20776;-73
2022/12/26 06:19:53;;;;;;;1.60;1.00;;;10.10;99.90;;;;;;5066062;28;20878;-75
2022/12/26 06:22:19;;;;;;;3.17;1.20;;;10.10;99.90;;;;;;5065302;28;20416;-74
2022/12/26 06:24:46;;;;;;;2.80;1.37;;;10.10;99.90;;;;;;5062487;28;20901;-75
2022/12/26 06:27:14;;;;;;;2.53;1.30;;;10.00;99.90;;;;;;5056797;28;20430;-75
2022/12/26 06:29:41;;;;;;;2.90;1.30;;;10.00;99.90;;;;;;5058452;28;20424;-74
2022/12/26 06:32:08;;;;;;;1.33;1.20;;;10.00;99.90;;;;;;5065504;28;21038;-74
2022/12/26 06:34:34;;;;;;;2.73;1.30;;;10.00;99.90;;;;;;5065372;28;20422;-73
2022/12/26 06:37:01;;;;;;;1.70;1.20;;;10.00;99.90;;;;;;5065678;28;20594;-73
2022/12/26 06:39:28;;;;;;;1.88;1.20;;;10.00;99.90;;;;;;5064406;28;20955;-74
2022/12/26 06:41:55;;;;;;;1.50;1.23;;;10.00;99.90;;;;;;5064129;28;20458;-74
2022/12/26 06:44:23;;;;;;;1.50;1.40;;;10.00;99.90;;;;;;5057134;28;20416;-73
2022/12/26 06:46:49;;;;;;;2.30;1.50;;;10.00;99.90;;;;;;5065304;28;20427;-73
2022/12/26 06:49:16;;;;;;;1.67;1.50;;;10.00;99.90;;;;;;5065627;28;20419;-75
2022/12/26 06:51:43;;;;;;;2.08;1.40;;;10.00;99.90;;;;;;5067059;28;20944;-75
2022/12/26 06:54:11;;;;;;;1.40;1.30;;;9.90;99.90;;;;;;5068852;28;20477;-73
2022/12/26 06:56:37;;;;;;;2.10;1.40;;;9.90;99.90;;;;;;5067184;28;20508;-74
2022/12/26 06:59:05;;;;;;;2.50;1.50;;;9.90;99.90;;;;;;5060214;28;20425;-73
2022/12/26 07:01:35;;;;;;;1.50;1.20;;;9.90;99.90;;;;;;5059242;28;20423;-73
2022/12/26 07:04:03;;;;;;;1.30;1.20;;;9.90;99.90;;;;;;5066675;28;20414;-73
2022/12/26 07:06:32;;;;;;;1.53;1.27;;;9.90;99.90;;;;;;5065511;28;20868;-73
2022/12/26 07:09:00;;;;;;;1.83;1.13;;;9.90;99.90;;;;;;5065317;28;20412;-75
2022/12/26 07:11:29;;;;;;;1.55;1.20;;;9.90;99.90;;;;;;5063842;28;20525;-73
2022/12/26 07:13:56;;;;;;;1.88;1.40;;;9.90;99.90;;;;;;5050056;28;20459;-74
2022/12/26 07:16:23;;;;;;;1.30;1.00;;;9.90;99.90;;;;;;5057032;28;20411;-73
2022/12/26 07:18:53;;;;;;;1.02;0.93;;;9.80;99.90;;;;;;5064961;28;20743;-73
2022/12/26 07:21:21;;;;;;;1.20;1.10;;;9.90;99.90;;;;;;5064918;28;20497;-73
2022/12/26 07:23:48;;;;;;;1.50;1.40;;;9.90;99.90;;;;;;5048935;28;20483;-72
2022/12/26 07:26:14;;;;;;;0.95;0.85;;;9.90;99.90;;;;;;5057022;28;20458;-73
2022/12/26 07:28:41;;;;;;;1.00;0.90;;;9.90;99.90;;;;;;5062726;28;20435;-72
2022/12/26 07:31:08;;;;;;;1.50;1.20;;;9.90;99.90;;;;;;5053185;28;20510;-71
2022/12/26 07:33:35;;;;;;;1.90;0.93;;;9.90;99.90;;;;;;5064445;28;20446;-72
2022/12/26 07:36:05;;;;;;;1.40;0.90;;;9.90;99.90;;;;;;5064059;28;20420;-73
2022/12/26 07:38:33;;;;;;;1.10;0.80;;;9.80;99.90;;;;;;5065093;28;20526;-72
2022/12/26 07:41:56;;;;;;;1.50;0.93;;;9.80;99.90;;;;;;5062638;28;20427;-72
2022/12/26 07:43:47;;;;;;;1.20;0.90;;;9.80;99.90;;;;;;5049008;28;20467;-73
2022/12/26 07:46:14;;;;;;;2.40;1.00;;;9.90;99.90;;;;;;5061752;28;20424;-73
2022/12/26 07:48:41;;;;;;;1.60;0.98;;;9.80;99.90;;;;;;5063709;28;20431;-73
2022/12/26 07:51:09;;;;;;;1.38;0.90;;;9.80;99.90;;;;;;5054846;28;20433;-74
2022/12/26 07:53:36;;;;;;;0.95;0.85;;;9.80;99.90;;;;;;5055536;28;20890;-73
2022/12/26 07:56:03;;;;;;;1.77;0.98;;;9.80;99.90;;;;;;5061136;28;20431;-73
2022/12/26 07:58:29;;;;;;;1.40;0.80;;;9.80;99.90;;;;;;5052280;28;20406;-73
2022/12/26 08:01:00;;;;;;;1.42;1.08;;;9.80;99.90;;;;;;5062137;28;20419;-73
2022/12/26 08:03:26;;;;;;;1.10;1.00;;;9.80;99.90;;;;;;5063999;28;20423;-74
2022/12/26 08:05:53;;;;;;;1.35;1.10;;;9.70;99.90;;;;;;5067054;28;20419;-74
2022/12/26 08:08:22;;;;;;;1.83;1.20;;;9.70;99.90;;;;;;5069005;28;20438;-73
2022/12/26 08:10:49;;;;;;;2.38;1.00;;;9.70;99.90;;;;;;5068691;28;20497;-73
2022/12/26 08:13:15;;;;;;;1.40;1.00;;;9.70;99.90;;;;;;5056997;28;20461;-74
2022/12/26 08:15:42;;;;;;;1.80;1.10;;;9.70;99.90;;;;;;5064222;28;20798;-73
2022/12/26 08:18:09;;;;;;;1.20;0.95;;;9.70;99.90;;;;;;5063069;28;20432;-74
2022/12/26 08:20:36;;;;;;;1.80;1.27;;;9.80;99.90;;;;;;5056316;28;21122;-73
2022/12/26 08:23:03;;;;;;;1.60;1.50;;;9.70;99.90;;;;;;5064139;28;20420;-73
2022/12/26 08:25:31;;;;;;;1.60;1.50;;;9.70;99.90;;;;;;5060782;28;20766;-73
2022/12/26 08:27:58;;;;;;;1.60;1.30;;;9.70;99.90;;;;;;5058694;28;20434;-73
2022/12/26 08:30:25;;;;;;;1.92;1.55;;;9.70;99.90;;;;;;5060510;28;20515;-73
2022/12/26 08:32:52;;;;;;;1.70;1.60;;;9.80;99.90;;;;;;5055391;28;20455;-73
2022/12/26 08:35:19;;;;;;;1.65;1.40;;;9.80;99.90;;;;;;5051742;28;20419;-73
2022/12/26 08:37:47;;;;;;;1.30;1.20;;;9.80;99.90;;;;;;5063623;28;20781;-73
2022/12/26 08:40:14;;;;;;;1.90;1.10;;;9.90;99.90;;;;;;5063779;28;20571;-74
2022/12/26 08:42:42;;;;;;;1.57;1.30;;;10.00;99.90;;;;;;5062370;28;20901;-74
2022/12/26 08:45:09;;;;;;;1.35;1.20;;;10.10;99.90;;;;;;5052724;28;20424;-74
2022/12/26 08:47:36;;;;;;;1.80;1.30;;;10.10;99.90;;;;;;5063678;28;20446;-74
2022/12/26 08:50:02;;;;;;;1.40;1.17;;;10.20;99.90;;;;;;5063727;28;20545;-73
2022/12/26 08:52:29;;;;;;;1.95;1.10;;;10.30;99.90;;;;;;5062820;28;20435;-73
2022/12/26 08:54:56;;;;;;;2.13;1.45;;;10.30;99.90;;;;;;5060195;28;20436;-73
2022/12/26 08:57:22;;;;;;;2.17;1.30;;;10.30;99.90;;;;;;5061474;28;20424;-74
2022/12/26 08:59:51;;;;;;;2.67;1.30;;;10.40;99.90;;;;;;5046395;28;20428;-73
2022/12/26 09:02:17;;;;;;;1.42;1.13;;;10.50;99.90;;;;;;5058711;28;20458;-72
2022/12/26 09:04:44;;;;;;;2.90;1.35;;;10.50;99.90;;;;;;5063439;28;20442;-73
2022/12/26 09:07:11;;;;;;;1.40;1.10;;;10.70;99.90;;;;;;5062931;28;21059;-73
2022/12/26 09:09:37;;;;;;;1.73;1.30;;;10.80;99.90;;;;;;5055869;28;20519;-73
2022/12/26 09:12:05;;;;;;;1.90;1.30;;;10.80;99.90;;;;;;5057966;28;20446;-73
2022/12/26 09:14:32;;;;;;;2.00;1.47;;;10.90;99.90;;;;;;5057025;28;20473;-73
2022/12/26 09:17:00;;;;;;;3.40;1.80;;;11.00;99.90;;;;;;5052238;28;20855;-73
2022/12/26 09:19:28;;;;;;;1.70;1.35;;;11.00;99.90;;;;;;5058645;28;20435;-73
2022/12/26 09:24:36;;;;;;;1.70;1.40;;;11.20;99.90;;;;;;5064009;28;20474;-73
2022/12/26 09:27:03;;;;;;;3.10;1.02;;;11.20;99.70;;;;;;5064806;28;20424;-72
2022/12/26 09:29:29;;;;;;;1.50;1.10;;;11.30;99.30;;;;;;5061786;28;20924;-73
2022/12/26 09:31:56;;;;;;;1.70;1.10;;;11.30;99.20;;;;;;5067241;28;20462;-73
2022/12/26 09:34:24;;;;;;;1.92;0.93;;;11.30;98.30;;;;;;5066200;28;20446;-73
2022/12/26 09:36:51;;;;;;;1.10;0.80;;;11.40;98.60;;;;;;5066160;28;20494;-73
2022/12/26 09:39:17;;;;;;;1.80;0.98;;;11.40;97.90;;;;;;5054583;28;21926;-73
2022/12/26 09:42:09;;;;;;;1.60;1.08;;;11.50;98.30;;;;;;5072005;28;20449;-73
2022/12/26 09:44:45;;;;;;;1.85;0.90;;;11.50;98.60;;;;;;5056186;28;20885;-74
2022/12/26 09:47:27;;;;;;;2.00;1.10;;;11.50;98.50;;;;;;5073278;28;20904;-73
2022/12/26 09:49:58;;;;;;;2.00;0.90;;;11.60;97.00;;;;;;5064794;28;20419;-73
2022/12/26 09:52:34;;;;;;;1.48;0.80;;;11.60;96.00;;;;;;5070803;28;20433;-73
2022/12/26 09:55:06;;;;;;;2.00;1.10;;;11.70;96.00;;;;;;5067890;28;20486;-73
2022/12/26 09:57:39;;;;;;;1.30;0.80;;;11.70;96.30;;;;;;5074409;28;20478;-73
2022/12/26 10:00:13;;;;;;;1.90;0.90;;;11.80;95.90;;;;;;5065614;28;20423;-73
2022/12/26 10:02:40;;;;;;;1.95;1.10;;;11.80;95.20;;;;;;5058668;28;20427;-73
2022/12/26 10:05:12;;;;;;;1.52;1.08;;;11.80;95.00;;;;;;5064931;28;20869;-71
2022/12/26 10:07:46;;;;;;;3.30;1.10;;;11.80;94.80;;;;;;5058759;28;20427;-73
2022/12/26 10:10:17;;;;;;;1.90;1.00;;;11.80;94.40;;;;;;5061790;28;20426;-72
2022/12/26 10:12:56;;;;;;;1.90;1.35;;;11.70;94.90;;;;;;5058229;28;20909;-72
2022/12/26 10:15:40;;;;;;;2.60;1.00;;;11.70;94.80;;;;;;5056755;28;20422;-73
2022/12/26 10:18:18;;;;;;;1.80;1.17;;;11.80;94.00;;;;;;5067938;28;20893;-73
2022/12/26 10:20:59;;;;;;;1.88;1.00;;;11.80;93.90;;;;;;5067699;28;20430;-73
2022/12/26 10:23:32;;;;;;;1.63;1.08;;;11.90;93.40;;;;;;5063212;28;20505;-72
2022/12/26 10:26:08;;;;;;;1.95;1.20;;;12.00;93.20;;;;;;5048186;28;21065;-71
2022/12/26 10:28:39;;;;;;;2.10;1.10;;;12.10;92.00;;;;;;5064452;28;20428;-73
2022/12/26 10:31:12;;;;;;;1.30;0.90;;;12.10;92.30;;;;;;5060219;28;20428;-72
2022/12/26 10:33:44;;;;;;;2.33;1.00;;;12.30;91.50;;;;;;5066056;28;20423;-72
2022/12/26 10:36:21;;;;;;;1.48;0.80;;;12.40;91.10;;;;;;5067054;28;20435;-72
2022/12/26 10:38:52;;;;;;;1.55;0.90;;;12.60;91.00;;;;;;5068777;28;20418;-72
2022/12/26 10:41:23;;;;;;;2.00;1.00;;;12.70;89.10;;;;;;5053521;28;20428;-72
2022/12/26 10:43:50;;;;;;;1.52;0.90;;;12.70;90.30;;;;;;5067915;28;20878;-72
2022/12/26 10:46:58;;;;;;;2.97;1.10;;;12.60;90.40;;;;;;5057778;28;20423;-71
2022/12/26 10:49:27;;;;;;;1.67;1.00;;;12.50;90.00;;;;;;5070338;28;20438;-72
2022/12/26 10:51:59;;;;;;;1.13;0.80;;;12.40;90.60;;;;;;5068334;28;20506;-72
2022/12/26 10:54:28;;;;;;;1.77;0.90;;;12.30;91.10;;;;;;5066105;28;20418;-73
2022/12/26 10:56:57;;;;;;;2.10;1.20;;;12.20;91.00;;;;;;5056139;28;20487;-73
2022/12/26 10:59:35;;;;;;;1.58;0.98;;;12.20;91.10;;;;;;5066161;28;20870;-72
2022/12/26 11:02:13;;;;;;;1.50;0.90;;;12.30;91.60;;;;;;5065757;28;20416;-72
2022/12/26 11:04:57;;;;;;;1.85;1.20;;;12.40;90.30;;;;;;5054046;28;20454;-72
2022/12/26 11:07:27;;;;;;;3.50;1.40;;;12.50;90.40;;;;;;5063978;28;20494;-72
2022/12/26 11:09:55;;;;;;;2.33;1.00;;;12.60;90.00;;;;;;5065709;28;20424;-72
2022/12/26 11:12:27;;;;;;;2.50;1.10;;;12.70;89.20;;;;;;5058917;28;20461;-72
2022/12/26 11:14:59;;;;;;;1.63;1.00;;;12.70;88.20;;;;;;5050060;28;20413;-73
2022/12/26 11:17:29;;;;;;;1.40;0.80;;;12.80;86.30;;;;;;5052651;28;20412;-72
2022/12/26 11:20:30;;;;;;;1.67;1.20;;;12.70;86.40;;;;;;5054658;28;20507;-70
2022/12/26 11:23:23;;;;;;;2.20;1.20;;;12.70;87.00;;;;;;4958317;28;20518;-73
2022/12/26 11:25:52;;;;;;;1.70;1.50;;;12.70;88.20;;;;;;5059449;28;20921;-73
2022/12/26 11:28:32;;;;;;;1.65;0.90;;;12.90;87.10;;;;;;5052350;28;20776;-72
2022/12/26 11:31:00;;;;;;;3.20;1.10;;;13.00;86.20;;;;;;5058754;28;20419;-72
2022/12/26 11:33:30;;;;;;;3.00;1.23;;;13.00;82.50;;;;;;5055211;28;20522;-72
2022/12/26 11:36:09;;;;;;;2.15;1.10;;;12.90;82.40;;;;;;5068960;28;20771;-72
2022/12/26 11:38:49;;;;;;;3.50;1.70;;;12.80;83.40;;;;;;5062019;28;20416;-72
2022/12/26 11:41:31;;;;;;;1.80;0.90;;;12.80;83.90;;;;;;5072487;28;20459;-72
2022/12/26 11:44:04;;;;;;;2.20;1.00;;;12.90;82.10;;;;;;5053453;28;20543;-72
2022/12/26 11:46:37;;;;;;;2.03;1.10;;;13.00;82.90;;;;;;5062691;28;20434;-72
2022/12/26 11:49:05;;;;;;;2.60;1.30;;;13.10;81.50;;;;;;5064063;28;20528;-72
2022/12/26 11:51:35;;;;;;;3.00;1.42;;;13.20;81.90;;;;;;5057119;28;20436;-71
2022/12/26 11:54:20;;;;;;;2.67;1.30;;;13.20;80.90;;;;;;5054633;28;20436;-71
2022/12/26 11:56:47;;;;;;;2.50;1.38;;;13.20;81.70;;;;;;5063386;28;20534;-70
2022/12/26 11:59:19;;;;;;;2.17;1.10;;;13.30;80.70;;;;;;5067895;28;20473;-71
2022/12/26 12:01:46;;;;;;;1.50;0.80;;;13.40;79.10;;;;;;5071585;28;20881;-71
2022/12/26 12:04:13;;;;;;;1.70;1.10;;;13.80;78.70;;;;;;5063268;28;20511;-72
2022/12/26 12:06:55;;;;;;;2.20;0.90;;;14.20;76.30;;;;;;5060955;28;20781;-70
2022/12/26 12:09:32;;;;;;;2.30;0.93;;;14.10;74.30;;;;;;5052906;28;20457;-72
2022/12/26 12:12:07;;;;;;;2.22;1.08;;;13.70;76.70;;;;;;5062843;28;20438;-71
2022/12/26 12:14:55;;;;;;;1.50;0.70;;;13.50;77.30;;;;;;5058209;28;20429;-72
2022/12/26 12:17:25;;;;;;;3.55;1.10;;;13.30;78.20;;;;;;5052139;28;20766;-73
2022/12/26 12:20:14;;;;;;;2.20;1.00;;;13.00;77.20;;;;;;5063755;28;20418;-73
2022/12/26 12:22:56;;;;;;;2.38;1.02;;;12.70;79.80;;;;;;5055042;28;20429;-72
2022/12/26 12:25:59;;;;;;;3.20;1.05;;;12.50;80.70;;;;;;5061221;28;20600;-72
2022/12/26 12:29:16;;;;;;;2.47;1.00;;;12.30;81.90;;;;;;5053267;28;20505;-72
2022/12/26 12:31:58;;;;;;;2.22;1.10;;;12.30;82.00;;;;;;4958385;28;20458;-73
2022/12/26 12:34:36;;;;;;;2.65;1.00;;;12.10;83.20;;;;;;5046680;28;20437;-72
2022/12/26 12:37:19;;;;;;;2.78;1.30;;;12.10;84.00;;;;;;5065592;28;20426;-72
2022/12/26 12:39:55;;;;;;;1.92;1.00;;;12.10;84.30;;;;;;5065103;28;20502;-73
2022/12/26 12:42:31;;;;;;;1.90;0.90;;;12.10;84.90;;;;;;5062669;28;20514;-73
2022/12/26 12:45:17;;;;;;;2.00;1.08;;;12.00;85.50;;;;;;5052700;28;20428;-72
2022/12/26 12:47:53;;;;;;;1.92;0.95;;;11.80;87.10;;;;;;5055708;28;20971;-72
2022/12/26 12:50:28;;;;;;;3.20;0.97;;;11.70;88.10;;;;;;5063985;28;20497;-71
2022/12/26 12:53:03;;;;;;;2.55;0.70;;;11.70;89.40;;;;;;5064421;28;20462;-71
2022/12/26 12:55:51;;;;;;;1.63;1.23;;;11.70;89.80;;;;;;5067623;28;20474;-72
2022/12/26 12:58:26;;;;;;;2.35;1.20;;;11.70;90.10;;;;;;5057277;28;20907;-71
2022/12/26 13:00:56;;;;;;;2.20;1.08;;;11.70;90.10;;;;;;5065212;28;20404;-71
2022/12/26 13:03:31;;;;;;;1.27;0.98;;;11.80;90.10;;;;;;5060316;28;20548;-72
2022/12/26 13:06:05;;;;;;;2.00;1.10;;;11.90;90.10;;;;;;5061975;28;20429;-71
2022/12/26 13:08:37;;;;;;;2.33;1.10;;;11.90;90.00;;;;;;5059419;28;20435;-72
2022/12/26 13:11:09;;;;;;;2.70;1.23;;;11.90;89.90;;;;;;5067807;28;20426;-72
2022/12/26 13:13:38;;;;;;;1.70;1.20;;;12.00;89.20;;;;;;5059684;28;20436;-71
2022/12/26 13:16:12;;;;;;;2.28;1.40;;;12.00;90.20;;;;;;5061974;28;20419;-71
2022/12/26 13:18:47;;;;;;;2.00;1.00;;;11.90;89.70;;;;;;5067578;28;20829;-70
2022/12/26 13:21:15;;;;;;;1.95;1.20;;;11.90;90.00;;;;;;5067508;28;20816;-70
2022/12/26 13:26:34;;;;;;;3.00;1.30;;;11.80;90.30;;;;;;5066900;28;20416;-71
2022/12/26 13:29:07;;;;;;;1.42;1.20;;;11.70;90.90;;;;;;5063558;28;20423;-72
2022/12/26 13:31:35;;;;;;;2.50;1.20;;;11.70;90.90;;;;;;5066599;28;20782;-72
2022/12/26 13:34:07;;;;;;;2.90;1.40;;;11.70;90.70;;;;;;5066634;28;20939;-72
2022/12/26 13:36:41;;;;;;;2.00;1.50;;;11.60;90.80;;;;;;5066873;28;20419;-70
2022/12/26 13:39:31;;;;;;;2.40;1.50;;;11.50;91.60;;;;;;5067167;28;20447;-71
2022/12/26 13:44:50;;;;;;;2.72;1.80;;;11.10;97.10;;;;;;5055825;28;20473;-72
2022/12/26 13:47:34;;;;;;;4.35;2.40;;;10.60;99.70;;;;;;5060208;28;20423;-71
2022/12/26 13:50:35;;;;;;;2.67;2.20;;;10.30;99.90;;;;;;5056246;28;20423;-73
2022/12/26 13:53:03;;;;;;;3.72;2.33;;;10.10;99.90;;;;;;5045737;28;20771;-73
2022/12/26 13:55:45;;;;;;;3.88;2.30;;;10.00;99.90;;;;;;5066839;28;20415;-73
2022/12/26 13:58:26;;;;;;;3.08;2.20;;;9.90;99.90;;;;;;5062352;28;20450;-73
2022/12/26 14:01:00;;;;;;;3.33;1.90;;;9.90;99.90;;;;;;5053994;28;20480;-73
2022/12/26 14:03:48;;;;;;;2.00;1.25;;;9.80;99.90;;;;;;5066064;28;20415;-71
2022/12/26 14:06:40;;;;;;;3.10;1.40;;;9.70;99.90;;;;;;5066382;28;20782;-72
2022/12/26 14:09:20;;;;;;;2.07;1.87;;;9.60;99.90;;;;;;5066090;28;20432;-73
2022/12/26 14:12:01;;;;;;;2.20;1.30;;;9.50;99.90;;;;;;5066717;28;20416;-70
2022/12/26 14:14:41;;;;;;;1.80;1.50;;;9.50;99.90;;;;;;5059639;28;20461;-72
2022/12/26 14:17:17;;;;;;;2.40;1.60;;;9.40;99.90;;;;;;5065397;28;20560;-72
2022/12/26 14:19:57;;;;;;;2.95;1.90;;;9.40;99.90;;;;;;5066936;28;20483;-72
2022/12/26 14:22:40;;;;;;;3.30;2.20;;;9.40;99.90;;;;;;5059277;28;20911;-72
2022/12/26 14:25:29;;;;;;;2.53;2.30;;;9.40;99.90;;;;;;5058019;28;20415;-73
2022/12/26 14:28:02;;;;;;;3.33;2.60;;;9.40;99.90;;;;;;5066429;28;20886;-72
2022/12/26 14:30:34;;;;;;;2.67;2.33;;;9.30;99.90;;;;;;5060610;28;20503;-72
2022/12/26 14:33:26;;;;;;;2.78;2.00;;;9.20;99.90;;;;;;5057586;28;20432;-71
2022/12/26 14:36:03;;;;;;;4.05;1.80;;;9.10;99.90;;;;;;5059696;28;20408;-70
2022/12/26 14:38:38;;;;;;;1.95;1.50;;;9.00;98.90;;;;;;5065822;28;20420;-71
2022/12/26 14:43:09;;;;;;;3.20;1.80;;;8.90;99.50;;;;;;5057342;28;20417;-71
2022/12/26 14:43:55;;;;;;;2.53;1.80;;;8.90;99.40;;;;;;5064244;28;20468;-70
2022/12/26 14:46:55;;;;;;;3.60;2.40;;;8.90;99.90;;;;;;5053742;28;20467;-72
2022/12/26 14:49:24;;;;;;;2.60;1.70;;;8.90;99.90;;;;;;5063073;28;20431;-72
2022/12/26 14:51:51;;;;;;;3.20;2.22;;;8.90;99.90;;;;;;5066148;28;20427;-72
2022/12/26 14:54:46;;;;;;;3.00;1.98;;;8.80;99.90;;;;;;5065794;28;20426;-70
2022/12/26 14:57:46;;;;;;;3.50;2.10;;;8.80;99.90;;;;;;5065956;28;20915;-72
2022/12/26 15:00:33;;;;;;;3.58;2.00;;;8.80;99.90;;;;;;5052787;28;20436;-70
2022/12/26 15:03:42;;;;;;;3.50;2.15;;;8.90;99.60;;;;;;5063601;28;20431;-70
2022/12/26 15:06:57;;;;;;;2.45;2.25;;;8.90;99.90;;;;;;5054398;28;21039;-72
2022/12/26 15:09:53;;;;;;;2.83;2.40;;;8.90;99.90;;;;;;5054253;28;20781;-72
2022/12/26 15:13:00;;;;;;;4.10;2.70;;;8.90;99.00;;;;;;5064979;28;20434;-71
2022/12/26 15:15:33;;;;;;;3.72;2.88;;;8.90;99.90;;;;;;5063041;28;20407;-72
2022/12/26 15:18:44;;;;;;;4.60;3.10;;;8.80;99.90;;;;;;5060037;28;20588;-71
2022/12/26 15:21:27;;;;;;;4.30;3.00;;;8.70;99.90;;;;;;4983487;28;20846;-71
2022/12/26 15:24:29;;;;;;;3.45;3.10;;;8.70;99.90;;;;;;5045736;28;22343;-71
2022/12/26 15:27:16;;;;;;;4.65;3.38;;;8.60;99.90;;;;;;5051885;28;20416;-71
2022/12/26 15:30:20;;;;;;;4.32;3.50;;;8.70;99.90;;;;;;5064351;28;20450;-71
2022/12/26 15:32:57;;;;;;;5.57;3.40;;;8.70;99.90;;;;;;5050790;28;20464;-71
2022/12/26 15:35:29;;;;;;;4.43;3.10;;;8.70;99.20;;;;;;5065223;28;20426;-71
2022/12/26 15:38:19;;;;;;;3.15;2.50;;;8.70;95.00;;;;;;5064463;28;20419;-71